sensor_id;sensor_type;location;lat;lon;timestamp;pressure;altitude;pressure_sealevel;temperature;humidity
61292;BME280;47165;42.664;23.368;2023-02-28T00:00:34;95471.22;;;9.44;71.40
61292;BME280;47165;42.664;23.368;2023-02-28T00:03:00;95473.00;;;9.43;71.37
61292;BME280;47165;42.664;23.368;2023-02-28T00:05:27;95485.03;;;9.46;71.66
61292;BME280;47165;42.664;23.368;2023-02-28T00:07:53;95476.19;;;9.30;71.45
61292;BME280;47165;42.664;23.368;2023-02-28T00:10:24;95471.56;;;9.36;71.36
61292;BME280;47165;42.664;23.368;2023-02-28T00:12:51;95465.91;;;9.26;71.56
61292;BME280;47165;42.664;23.368;2023-02-28T00:15:17;95479.19;;;9.20;71.67
61292;BME280;47165;42.664;23.368;2023-02-28T00:17:43;95490.59;;;9.18;72.49
61292;BME280;47165;42.664;23.368;2023-02-28T00:20:09;95489.19;;;9.11;72.25
61292;BME280;47165;42.664;23.368;2023-02-28T00:22:42;95479.16;;;8.81;73.82
61292;BME280;47165;42.664;23.368;2023-02-28T00:25:09;95495.31;;;8.89;74.05
61292;BME280;47165;42.664;23.368;2023-02-28T00:27:36;95503.63;;;8.97;74.28
61292;BME280;47165;42.664;23.368;2023-02-28T00:30:01;95480.72;;;9.05;74.00
61292;BME280;47165;42.664;23.368;2023-02-28T00:32:27;95496.91;;;9.12;73.61
61292;BME280;47165;42.664;23.368;2023-02-28T00:34:52;95507.44;;;9.11;73.37
61292;BME280;47165;42.664;23.368;2023-02-28T00:37:18;95476.94;;;9.13;73.12
61292;BME280;47165;42.664;23.368;2023-02-28T00:39:43;95496.59;;;8.99;73.58
61292;BME280;47165;42.664;23.368;2023-02-28T00:42:09;95501.69;;;8.82;74.16
61292;BME280;47165;42.664;23.368;2023-02-28T00:44:34;95483.06;;;8.91;74.39
61292;BME280;47165;42.664;23.368;2023-02-28T00:47:00;95467.19;;;8.97;73.95
61292;BME280;47165;42.664;23.368;2023-02-28T00:49:26;95475.50;;;9.05;73.66
61292;BME280;47165;42.664;23.368;2023-02-28T00:51:52;95472.38;;;9.18;73.04
61292;BME280;47165;42.664;23.368;2023-02-28T00:54:18;95473.16;;;9.20;72.69
61292;BME280;47165;42.664;23.368;2023-02-28T00:56:44;95474.13;;;9.17;72.79
61292;BME280;47165;42.664;23.368;2023-02-28T00:59:11;95473.81;;;9.25;72.25
61292;BME280;47165;42.664;23.368;2023-02-28T01:01:37;95485.84;;;9.27;71.93
61292;BME280;47165;42.664;23.368;2023-02-28T01:04:02;95491.84;;;9.09;72.04
61292;BME280;47165;42.664;23.368;2023-02-28T01:06:28;95493.75;;;9.05;72.20
61292;BME280;47165;42.664;23.368;2023-02-28T01:08:53;95500.41;;;9.13;71.79
61292;BME280;47165;42.664;23.368;2023-02-28T01:11:19;95486.66;;;9.09;71.81
61292;BME280;47165;42.664;23.368;2023-02-28T01:13:45;95487.38;;;9.13;71.66
61292;BME280;47165;42.664;23.368;2023-02-28T01:16:12;95485.03;;;9.06;72.04
61292;BME280;47165;42.664;23.368;2023-02-28T01:18:38;95489.31;;;9.07;72.27
61292;BME280;47165;42.664;23.368;2023-02-28T01:21:09;95480.41;;;9.13;71.95
61292;BME280;47165;42.664;23.368;2023-02-28T01:23:35;95482.22;;;9.11;71.99
61292;BME280;47165;42.664;23.368;2023-02-28T01:28:30;95475.31;;;9.10;71.65
61292;BME280;47165;42.664;23.368;2023-02-28T01:30:56;95480.50;;;9.10;71.49
61292;BME280;47165;42.664;23.368;2023-02-28T01:33:21;95470.03;;;9.12;71.42
61292;BME280;47165;42.664;23.368;2023-02-28T01:35:47;95461.06;;;9.19;71.07
61292;BME280;47165;42.664;23.368;2023-02-28T01:38:12;95473.81;;;9.25;70.81
61292;BME280;47165;42.664;23.368;2023-02-28T01:40:37;95475.13;;;9.15;70.85
61292;BME280;47165;42.664;23.368;2023-02-28T01:43:09;95478.16;;;9.04;71.02
61292;BME280;47165;42.664;23.368;2023-02-28T01:45:44;95473.16;;;8.99;71.31
61292;BME280;47165;42.664;23.368;2023-02-28T01:48:09;95470.81;;;8.93;71.62
61292;BME280;47165;42.664;23.368;2023-02-28T01:50:38;95476.03;;;8.93;71.54
61292;BME280;47165;42.664;23.368;2023-02-28T01:53:07;95482.09;;;8.94;71.40
61292;BME280;47165;42.664;23.368;2023-02-28T01:55:36;95487.38;;;8.92;71.41
61292;BME280;47165;42.664;23.368;2023-02-28T01:58:04;95470.19;;;8.88;71.30
61292;BME280;47165;42.664;23.368;2023-02-28T02:00:31;95484.16;;;8.85;71.51
61292;BME280;47165;42.664;23.368;2023-02-28T02:02:59;95476.97;;;8.92;71.62
61292;BME280;47165;42.664;23.368;2023-02-28T02:05:27;95481.41;;;8.90;71.47
61292;BME280;47165;42.664;23.368;2023-02-28T02:08:08;95485.56;;;8.74;72.23
61292;BME280;47165;42.664;23.368;2023-02-28T02:10:36;95487.22;;;8.75;72.98
61292;BME280;47165;42.664;23.368;2023-02-28T02:37:29;95473.44;;;8.73;72.74
61292;BME280;47165;42.664;23.368;2023-02-28T02:40:13;95480.47;;;8.71;72.93
61292;BME280;47165;42.664;23.368;2023-02-28T02:45:23;95483.38;;;8.63;72.83
61292;BME280;47165;42.664;23.368;2023-02-28T02:47:51;95491.06;;;8.66;72.35
61292;BME280;47165;42.664;23.368;2023-02-28T02:50:26;95489.25;;;8.68;72.51
61292;BME280;47165;42.664;23.368;2023-02-28T02:52:57;95479.69;;;8.69;72.41
61292;BME280;47165;42.664;23.368;2023-02-28T02:55:25;95489.50;;;8.62;72.64
61292;BME280;47165;42.664;23.368;2023-02-28T02:57:58;95482.53;;;8.62;72.74
61292;BME280;47165;42.664;23.368;2023-02-28T03:00:31;95496.59;;;8.58;73.07
61292;BME280;47165;42.664;23.368;2023-02-28T03:02:59;95507.94;;;8.57;73.63
61292;BME280;47165;42.664;23.368;2023-02-28T03:05:33;95513.81;;;8.61;73.27
61292;BME280;47165;42.664;23.368;2023-02-28T03:08:03;95516.53;;;8.59;73.54
61292;BME280;47165;42.664;23.368;2023-02-28T03:10:45;95512.09;;;8.61;73.71
61292;BME280;47165;42.664;23.368;2023-02-28T03:24:27;95531.78;;;8.67;74.04
61292;BME280;47165;42.664;23.368;2023-02-28T03:27:07;95531.63;;;8.72;73.98
61292;BME280;47165;42.664;23.368;2023-02-28T03:29:37;95532.28;;;8.77;73.91
61292;BME280;47165;42.664;23.368;2023-02-28T03:32:18;95535.72;;;8.77;73.61
61292;BME280;47165;42.664;23.368;2023-02-28T03:37:40;95553.25;;;8.74;73.84
61292;BME280;47165;42.664;23.368;2023-02-28T03:40:17;95547.16;;;8.73;73.63
61292;BME280;47165;42.664;23.368;2023-02-28T03:42:48;95539.19;;;8.78;74.24
61292;BME280;47165;42.664;23.368;2023-02-28T03:45:22;95546.84;;;8.81;73.85
61292;BME280;47165;42.664;23.368;2023-02-28T03:47:53;95548.56;;;8.82;73.29
61292;BME280;47165;42.664;23.368;2023-02-28T03:50:31;95545.56;;;8.91;72.58
61292;BME280;47165;42.664;23.368;2023-02-28T03:53:08;95547.28;;;8.92;73.06
61292;BME280;47165;42.664;23.368;2023-02-28T03:55:45;95541.16;;;8.93;73.12
61292;BME280;47165;42.664;23.368;2023-02-28T03:58:47;95546.25;;;8.96;72.44
61292;BME280;47165;42.664;23.368;2023-02-28T04:01:55;95554.56;;;8.84;73.30
61292;BME280;47165;42.664;23.368;2023-02-28T04:04:14;95553.31;;;8.93;72.93
61292;BME280;47165;42.664;23.368;2023-02-28T04:06:41;95557.81;;;8.89;72.94
61292;BME280;47165;42.664;23.368;2023-02-28T04:09:08;95543.28;;;8.83;73.25
61292;BME280;47165;42.664;23.368;2023-02-28T04:11:41;95548.19;;;8.91;73.09
61292;BME280;47165;42.664;23.368;2023-02-28T04:14:09;95538.59;;;8.92;73.19
61292;BME280;47165;42.664;23.368;2023-02-28T04:16:37;95547.34;;;8.91;73.29
61292;BME280;47165;42.664;23.368;2023-02-28T04:19:05;95542.19;;;8.89;73.55
61292;BME280;47165;42.664;23.368;2023-02-28T04:21:36;95545.72;;;8.88;73.59
61292;BME280;47165;42.664;23.368;2023-02-28T04:24:04;95542.31;;;8.86;73.16
61292;BME280;47165;42.664;23.368;2023-02-28T04:26:34;95536.97;;;8.89;73.43
61292;BME280;47165;42.664;23.368;2023-02-28T04:29:00;95543.75;;;8.93;73.67
61292;BME280;47165;42.664;23.368;2023-02-28T04:31:26;95542.75;;;8.96;73.18
61292;BME280;47165;42.664;23.368;2023-02-28T04:33:51;95544.78;;;8.89;72.99
61292;BME280;47165;42.664;23.368;2023-02-28T04:36:17;95547.38;;;8.89;73.13
61292;BME280;47165;42.664;23.368;2023-02-28T04:38:43;95553.31;;;8.93;72.98
61292;BME280;47165;42.664;23.368;2023-02-28T04:41:09;95550.44;;;8.78;73.07
61292;BME280;47165;42.664;23.368;2023-02-28T04:43:34;95561.50;;;8.83;73.17
61292;BME280;47165;42.664;23.368;2023-02-28T04:46:02;95568.47;;;8.83;73.29
61292;BME280;47165;42.664;23.368;2023-02-28T04:48:29;95575.66;;;8.78;73.26
61292;BME280;47165;42.664;23.368;2023-02-28T04:50:55;95572.38;;;8.73;73.16
61292;BME280;47165;42.664;23.368;2023-02-28T04:53:21;95569.41;;;8.82;73.23
61292;BME280;47165;42.664;23.368;2023-02-28T04:55:46;95571.28;;;8.78;72.91
61292;BME280;47165;42.664;23.368;2023-02-28T04:58:15;95568.22;;;8.89;72.87
61292;BME280;47165;42.664;23.368;2023-02-28T05:00:41;95575.41;;;8.84;72.85
61292;BME280;47165;42.664;23.368;2023-02-28T05:03:06;95578.63;;;8.89;72.82
61292;BME280;47165;42.664;23.368;2023-02-28T05:05:32;95569.16;;;8.88;72.76
61292;BME280;47165;42.664;23.368;2023-02-28T05:07:58;95573.22;;;8.94;72.42
61292;BME280;47165;42.664;23.368;2023-02-28T05:10:23;95577.84;;;8.87;72.00
61292;BME280;47165;42.664;23.368;2023-02-28T05:12:49;95581.56;;;8.81;72.87
61292;BME280;47165;42.664;23.368;2023-02-28T05:15:17;95573.56;;;8.86;72.64
61292;BME280;47165;42.664;23.368;2023-02-28T05:17:43;95580.34;;;8.90;72.32
61292;BME280;47165;42.664;23.368;2023-02-28T05:20:10;95580.59;;;8.84;72.66
61292;BME280;47165;42.664;23.368;2023-02-28T05:22:42;95580.06;;;8.76;72.52
61292;BME280;47165;42.664;23.368;2023-02-28T05:25:10;95587.50;;;8.85;72.33
61292;BME280;47165;42.664;23.368;2023-02-28T05:27:37;95585.66;;;8.87;72.43
61292;BME280;47165;42.664;23.368;2023-02-28T05:30:03;95599.72;;;8.83;72.53
61292;BME280;47165;42.664;23.368;2023-02-28T05:32:29;95596.34;;;8.81;72.64
61292;BME280;47165;42.664;23.368;2023-02-28T05:34:55;95597.06;;;8.84;72.53
61292;BME280;47165;42.664;23.368;2023-02-28T05:37:21;95599.06;;;8.78;72.65
61292;BME280;47165;42.664;23.368;2023-02-28T05:39:46;95604.97;;;8.81;72.50
61292;BME280;47165;42.664;23.368;2023-02-28T05:42:11;95603.25;;;8.82;72.77
61292;BME280;47165;42.664;23.368;2023-02-28T05:44:37;95609.31;;;8.82;72.96
61292;BME280;47165;42.664;23.368;2023-02-28T05:47:02;95613.72;;;8.80;73.32
61292;BME280;47165;42.664;23.368;2023-02-28T05:49:28;95609.34;;;8.81;73.09
61292;BME280;47165;42.664;23.368;2023-02-28T05:51:53;95612.78;;;8.81;73.35
61292;BME280;47165;42.664;23.368;2023-02-28T05:54:19;95621.38;;;8.83;73.63
61292;BME280;47165;42.664;23.368;2023-02-28T05:56:44;95629.41;;;8.79;73.34
61292;BME280;47165;42.664;23.368;2023-02-28T05:59:12;95617.84;;;8.86;72.94
61292;BME280;47165;42.664;23.368;2023-02-28T06:01:45;95617.06;;;8.84;72.54
61292;BME280;47165;42.664;23.368;2023-02-28T06:04:14;95623.84;;;8.88;72.76
61292;BME280;47165;42.664;23.368;2023-02-28T06:06:44;95613.28;;;8.91;73.74
61292;BME280;47165;42.664;23.368;2023-02-28T06:09:10;95614.13;;;8.92;74.27
61292;BME280;47165;42.664;23.368;2023-02-28T06:11:35;95613.22;;;8.93;73.50
61292;BME280;47165;42.664;23.368;2023-02-28T06:14:02;95614.50;;;9.04;72.75
61292;BME280;47165;42.664;23.368;2023-02-28T06:16:28;95614.91;;;8.94;73.00
61292;BME280;47165;42.664;23.368;2023-02-28T06:18:57;95606.25;;;8.93;73.28
61292;BME280;47165;42.664;23.368;2023-02-28T06:21:23;95612.13;;;8.98;73.54
61292;BME280;47165;42.664;23.368;2023-02-28T06:23:48;95612.06;;;9.00;73.44
61292;BME280;47165;42.664;23.368;2023-02-28T06:26:13;95615.91;;;9.12;73.07
61292;BME280;47165;42.664;23.368;2023-02-28T06:28:39;95607.19;;;9.13;73.15
61292;BME280;47165;42.664;23.368;2023-02-28T06:31:14;95615.66;;;9.18;73.28
61292;BME280;47165;42.664;23.368;2023-02-28T06:33:41;95625.59;;;9.08;73.81
61292;BME280;47165;42.664;23.368;2023-02-28T06:36:07;95631.34;;;8.52;75.67
61292;BME280;47165;42.664;23.368;2023-02-28T06:38:34;95624.06;;;8.60;76.30
61292;BME280;47165;42.664;23.368;2023-02-28T06:41:01;95612.16;;;8.76;76.07
61292;BME280;47165;42.664;23.368;2023-02-28T06:43:32;95627.94;;;8.94;75.32
61292;BME280;47165;42.664;23.368;2023-02-28T06:45:59;95627.44;;;9.06;75.00
61292;BME280;47165;42.664;23.368;2023-02-28T06:48:27;95627.31;;;9.09;74.88
61292;BME280;47165;42.664;23.368;2023-02-28T06:51:05;95634.47;;;9.24;74.48
61292;BME280;47165;42.664;23.368;2023-02-28T06:53:30;95633.38;;;9.30;73.96
61292;BME280;47165;42.664;23.368;2023-02-28T06:55:56;95632.34;;;9.34;73.57
61292;BME280;47165;42.664;23.368;2023-02-28T06:58:21;95630.22;;;9.44;72.82
61292;BME280;47165;42.664;23.368;2023-02-28T07:00:50;95635.38;;;9.45;72.31
61292;BME280;47165;42.664;23.368;2023-02-28T07:03:16;95640.84;;;9.39;72.73
61292;BME280;47165;42.664;23.368;2023-02-28T07:05:43;95630.41;;;9.39;72.51
61292;BME280;47165;42.664;23.368;2023-02-28T07:08:08;95631.25;;;9.40;72.35
61292;BME280;47165;42.664;23.368;2023-02-28T07:10:33;95634.44;;;9.46;72.31
61292;BME280;47165;42.664;23.368;2023-02-28T07:13:00;95624.84;;;9.47;72.56
61292;BME280;47165;42.664;23.368;2023-02-28T07:15:25;95623.81;;;9.51;72.34
61292;BME280;47165;42.664;23.368;2023-02-28T07:17:50;95630.69;;;9.54;72.41
61292;BME280;47165;42.664;23.368;2023-02-28T07:20:16;95630.06;;;9.47;72.66
61292;BME280;47165;42.664;23.368;2023-02-28T07:22:41;95631.50;;;9.54;72.51
61292;BME280;47165;42.664;23.368;2023-02-28T07:25:07;95628.19;;;9.51;71.88
61292;BME280;47165;42.664;23.368;2023-02-28T07:27:33;95627.13;;;9.55;71.95
61292;BME280;47165;42.664;23.368;2023-02-28T07:29:59;95633.97;;;9.57;71.54
61292;BME280;47165;42.664;23.368;2023-02-28T07:32:27;95625.31;;;9.57;71.52
61292;BME280;47165;42.664;23.368;2023-02-28T07:34:52;95637.97;;;9.66;71.61
61292;BME280;47165;42.664;23.368;2023-02-28T07:37:18;95625.56;;;9.71;71.73
61292;BME280;47165;42.664;23.368;2023-02-28T07:39:43;95633.19;;;9.76;71.90
61292;BME280;47165;42.664;23.368;2023-02-28T07:42:09;95627.63;;;9.83;72.26
61292;BME280;47165;42.664;23.368;2023-02-28T07:44:37;95630.81;;;9.90;71.30
61292;BME280;47165;42.664;23.368;2023-02-28T07:47:09;95638.31;;;9.98;70.84
61292;BME280;47165;42.664;23.368;2023-02-28T07:49:38;95626.53;;;10.08;70.75
61292;BME280;47165;42.664;23.368;2023-02-28T07:52:05;95632.53;;;10.10;70.53
61292;BME280;47165;42.664;23.368;2023-02-28T07:54:31;95622.16;;;10.08;70.61
61292;BME280;47165;42.664;23.368;2023-02-28T07:56:57;95622.53;;;10.20;70.59
61292;BME280;47165;42.664;23.368;2023-02-28T07:59:23;95624.44;;;10.16;70.06
61292;BME280;47165;42.664;23.368;2023-02-28T08:01:48;95626.66;;;10.25;70.63
61292;BME280;47165;42.664;23.368;2023-02-28T08:04:16;95614.50;;;10.24;70.56
61292;BME280;47165;42.664;23.368;2023-02-28T08:06:42;95627.06;;;10.35;70.99
61292;BME280;47165;42.664;23.368;2023-02-28T08:09:07;95633.84;;;10.39;71.28
61292;BME280;47165;42.664;23.368;2023-02-28T08:11:33;95622.28;;;10.45;71.03
61292;BME280;47165;42.664;23.368;2023-02-28T08:13:58;95629.78;;;10.53;71.26
61292;BME280;47165;42.664;23.368;2023-02-28T08:16:24;95629.53;;;10.57;71.24
61292;BME280;47165;42.664;23.368;2023-02-28T08:18:51;95622.97;;;10.67;71.06
61292;BME280;47165;42.664;23.368;2023-02-28T08:21:17;95614.91;;;10.72;71.08
61292;BME280;47165;42.664;23.368;2023-02-28T08:23:43;95620.41;;;10.85;71.59
61292;BME280;47165;42.664;23.368;2023-02-28T08:26:09;95622.44;;;10.97;71.66
61292;BME280;47165;42.664;23.368;2023-02-28T08:28:34;95627.19;;;11.06;71.24
61292;BME280;47165;42.664;23.368;2023-02-28T08:31:00;95622.44;;;11.15;72.08
61292;BME280;47165;42.664;23.368;2023-02-28T08:33:26;95633.06;;;11.12;73.16
61292;BME280;47165;42.664;23.368;2023-02-28T08:35:56;95627.84;;;11.29;72.74
61292;BME280;47165;42.664;23.368;2023-02-28T08:38:22;95627.22;;;11.41;72.23
61292;BME280;47165;42.664;23.368;2023-02-28T08:40:47;95616.38;;;11.49;71.68
61292;BME280;47165;42.664;23.368;2023-02-28T08:43:13;95624.38;;;11.63;71.93
61292;BME280;47165;42.664;23.368;2023-02-28T08:45:39;95618.06;;;11.67;71.80
61292;BME280;47165;42.664;23.368;2023-02-28T08:48:04;95627.44;;;11.54;73.25
61292;BME280;47165;42.664;23.368;2023-02-28T08:50:30;95619.06;;;11.65;73.48
61292;BME280;47165;42.664;23.368;2023-02-28T08:52:55;95625.22;;;11.29;73.72
61292;BME280;47165;42.664;23.368;2023-02-28T08:55:20;95627.69;;;11.50;73.25
61292;BME280;47165;42.664;23.368;2023-02-28T08:57:46;95623.50;;;11.80;72.46
61292;BME280;47165;42.664;23.368;2023-02-28T09:00:12;95609.97;;;11.72;71.45
61292;BME280;47165;42.664;23.368;2023-02-28T09:02:38;95636.16;;;11.90;71.30
61292;BME280;47165;42.664;23.368;2023-02-28T09:05:04;95623.09;;;11.88;71.13
61292;BME280;47165;42.664;23.368;2023-02-28T09:07:30;95621.50;;;11.85;71.07
61292;BME280;47165;42.664;23.368;2023-02-28T09:09:55;95628.34;;;11.88;70.67
61292;BME280;47165;42.664;23.368;2023-02-28T09:12:26;95628.28;;;11.72;71.05
61292;BME280;47165;42.664;23.368;2023-02-28T09:14:53;95622.91;;;11.75;71.10
61292;BME280;47165;42.664;23.368;2023-02-28T09:17:19;95619.59;;;11.89;71.13
61292;BME280;47165;42.664;23.368;2023-02-28T09:19:45;95625.13;;;12.00;71.04
61292;BME280;47165;42.664;23.368;2023-02-28T09:22:10;95621.66;;;12.00;70.70
61292;BME280;47165;42.664;23.368;2023-02-28T09:24:37;95621.44;;;12.20;69.89
61292;BME280;47165;42.664;23.368;2023-02-28T09:27:03;95619.59;;;12.22;70.43
61292;BME280;47165;42.664;23.368;2023-02-28T09:29:29;95618.22;;;12.15;70.51
61292;BME280;47165;42.664;23.368;2023-02-28T09:31:55;95607.41;;;12.21;70.03
61292;BME280;47165;42.664;23.368;2023-02-28T09:34:24;95610.47;;;12.45;69.74
61292;BME280;47165;42.664;23.368;2023-02-28T09:36:49;95613.63;;;12.68;68.37
61292;BME280;47165;42.664;23.368;2023-02-28T09:39:20;95608.38;;;12.84;67.45
61292;BME280;47165;42.664;23.368;2023-02-28T09:41:51;95604.88;;;12.83;65.84
61292;BME280;47165;42.664;23.368;2023-02-28T09:44:43;95601.25;;;12.22;67.93
61292;BME280;47165;42.664;23.368;2023-02-28T09:47:33;95611.75;;;12.54;67.25
61292;BME280;47165;42.664;23.368;2023-02-28T09:50:51;95604.91;;;12.52;67.46
61292;BME280;47165;42.664;23.368;2023-02-28T09:52:50;95599.75;;;12.66;66.76
61292;BME280;47165;42.664;23.368;2023-02-28T09:55:44;95610.56;;;12.76;66.55
61292;BME280;47165;42.664;23.368;2023-02-28T09:58:45;95615.13;;;12.72;66.94
61292;BME280;47165;42.664;23.368;2023-02-28T10:06:38;95602.91;;;13.19;64.79
61292;BME280;47165;42.664;23.368;2023-02-28T10:09:11;95598.88;;;13.43;64.82
61292;BME280;47165;42.664;23.368;2023-02-28T10:11:39;95596.41;;;13.40;64.18
61292;BME280;47165;42.664;23.368;2023-02-28T10:14:13;95593.16;;;13.51;63.64
61292;BME280;47165;42.664;23.368;2023-02-28T10:16:59;95589.38;;;13.41;63.54
61292;BME280;47165;42.664;23.368;2023-02-28T10:19:34;95576.88;;;13.46;63.76
61292;BME280;47165;42.664;23.368;2023-02-28T10:22:01;95586.34;;;13.63;62.91
61292;BME280;47165;42.664;23.368;2023-02-28T10:24:39;95585.44;;;13.78;62.03
61292;BME280;47165;42.664;23.368;2023-02-28T10:27:18;95584.34;;;13.97;60.76
61292;BME280;47165;42.664;23.368;2023-02-28T10:29:49;95576.91;;;14.03;60.61
61292;BME280;47165;42.664;23.368;2023-02-28T10:32:21;95576.81;;;13.91;60.80
61292;BME280;47165;42.664;23.368;2023-02-28T10:35:10;95574.81;;;14.23;59.72
61292;BME280;47165;42.664;23.368;2023-02-28T10:37:41;95573.59;;;14.43;58.25
61292;BME280;47165;42.664;23.368;2023-02-28T10:40:31;95564.34;;;14.79;58.59
61292;BME280;47165;42.664;23.368;2023-02-28T10:43:05;95566.50;;;14.72;56.55
61292;BME280;47165;42.664;23.368;2023-02-28T10:45:35;95557.31;;;14.92;56.88
61292;BME280;47165;42.664;23.368;2023-02-28T10:48:05;95545.16;;;15.04;55.82
61292;BME280;47165;42.664;23.368;2023-02-28T10:50:36;95549.22;;;15.35;55.60
61292;BME280;47165;42.664;23.368;2023-02-28T10:58:31;95538.28;;;15.41;54.36
61292;BME280;47165;42.664;23.368;2023-02-28T11:00:58;95524.81;;;15.33;54.56
61292;BME280;47165;42.664;23.368;2023-02-28T11:03:34;95529.69;;;15.65;54.25
61292;BME280;47165;42.664;23.368;2023-02-28T11:06:06;95525.50;;;15.75;53.27
61292;BME280;47165;42.664;23.368;2023-02-28T11:08:33;95516.81;;;15.99;53.54
61292;BME280;47165;42.664;23.368;2023-02-28T11:11:04;95514.34;;;16.21;51.36
61292;BME280;47165;42.664;23.368;2023-02-28T11:13:35;95513.84;;;16.16;50.68
61292;BME280;47165;42.664;23.368;2023-02-28T11:16:07;95511.13;;;15.54;52.90
61292;BME280;47165;42.664;23.368;2023-02-28T11:18:49;95519.91;;;15.01;54.57
61292;BME280;47165;42.664;23.368;2023-02-28T11:21:27;95521.09;;;15.10;54.40
61292;BME280;47165;42.664;23.368;2023-02-28T11:24:12;95514.31;;;14.93;55.49
61292;BME280;47165;42.664;23.368;2023-02-28T11:26:45;95508.09;;;15.60;53.29
61292;BME280;47165;42.664;23.368;2023-02-28T11:29:19;95512.38;;;15.99;52.30
61292;BME280;47165;42.664;23.368;2023-02-28T11:32:05;95511.56;;;15.99;51.14
61292;BME280;47165;42.664;23.368;2023-02-28T11:34:31;95517.25;;;15.93;52.14
61292;BME280;47165;42.664;23.368;2023-02-28T11:36:59;95501.34;;;15.94;51.28
61292;BME280;47165;42.664;23.368;2023-02-28T11:39:26;95501.00;;;15.60;52.28
61292;BME280;47165;42.664;23.368;2023-02-28T11:50:56;95501.44;;;15.93;51.37
61292;BME280;47165;42.664;23.368;2023-02-28T11:53:35;95493.13;;;15.99;52.15
61292;BME280;47165;42.664;23.368;2023-02-28T11:56:08;95486.34;;;16.20;51.39
61292;BME280;47165;42.664;23.368;2023-02-28T12:06:48;95491.56;;;17.05;49.15
61292;BME280;47165;42.664;23.368;2023-02-28T12:14:45;95487.34;;;16.55;49.75
61292;BME280;47165;42.664;23.368;2023-02-28T12:20:37;95484.44;;;16.22;49.92
61292;BME280;47165;42.664;23.368;2023-02-28T12:26:45;95486.03;;;16.49;50.60
61292;BME280;47165;42.664;23.368;2023-02-28T12:29:22;95481.03;;;16.57;50.17
61292;BME280;47165;42.664;23.368;2023-02-28T12:31:49;95483.28;;;16.75;50.08
61292;BME280;47165;42.664;23.368;2023-02-28T12:34:24;95483.94;;;16.41;49.58
61292;BME280;47165;42.664;23.368;2023-02-28T12:36:52;95487.81;;;16.73;49.85
61292;BME280;47165;42.664;23.368;2023-02-28T12:39:26;95490.69;;;16.94;48.88
61292;BME280;47165;42.664;23.368;2023-02-28T12:41:59;95482.47;;;17.09;48.21
61292;BME280;47165;42.664;23.368;2023-02-28T12:44:44;95482.28;;;17.24;47.57
61292;BME280;47165;42.664;23.368;2023-02-28T12:47:16;95474.72;;;16.84;47.75
61292;BME280;47165;42.664;23.368;2023-02-28T12:49:49;95473.56;;;16.99;47.84
61292;BME280;47165;42.664;23.368;2023-02-28T12:52:20;95480.53;;;17.00;47.30
61292;BME280;47165;42.664;23.368;2023-02-28T12:54:56;95472.22;;;16.69;48.13
61292;BME280;47165;42.664;23.368;2023-02-28T12:57:34;95472.47;;;17.02;48.60
61292;BME280;47165;42.664;23.368;2023-02-28T13:00:14;95468.25;;;17.23;47.64
61292;BME280;47165;42.664;23.368;2023-02-28T13:10:46;95472.28;;;17.74;45.54
61292;BME280;47165;42.664;23.368;2023-02-28T13:13:17;95467.75;;;17.99;45.77
61292;BME280;47165;42.664;23.368;2023-02-28T13:16:06;95475.41;;;18.02;44.42
61292;BME280;47165;42.664;23.368;2023-02-28T13:18:37;95468.91;;;18.06;45.65
61292;BME280;47165;42.664;23.368;2023-02-28T13:21:06;95466.13;;;18.19;45.65
61292;BME280;47165;42.664;23.368;2023-02-28T13:23:58;95472.47;;;18.39;45.17
61292;BME280;47165;42.664;23.368;2023-02-28T13:29:01;95460.56;;;18.44;44.04
61292;BME280;47165;42.664;23.368;2023-02-28T13:31:27;95463.56;;;18.51;43.96
61292;BME280;47165;42.664;23.368;2023-02-28T13:36:32;95459.75;;;18.33;43.89
61292;BME280;47165;42.664;23.368;2023-02-28T13:39:00;95452.31;;;18.26;43.26
61292;BME280;47165;42.664;23.368;2023-02-28T13:44:07;95455.97;;;18.03;44.65
61292;BME280;47165;42.664;23.368;2023-02-28T14:00:00;95437.25;;;16.79;46.49
61292;BME280;47165;42.664;23.368;2023-02-28T14:05:19;95448.31;;;16.36;47.22
61292;BME280;47165;42.664;23.368;2023-02-28T14:07:58;95460.53;;;16.13;48.20
61292;BME280;47165;42.664;23.368;2023-02-28T14:13:01;95469.88;;;15.80;49.29
61292;BME280;47165;42.664;23.368;2023-02-28T14:15:44;95465.44;;;15.67;49.73
61292;BME280;47165;42.664;23.368;2023-02-28T14:18:21;95455.34;;;15.48;50.58
61292;BME280;47165;42.664;23.368;2023-02-28T14:20:48;95460.59;;;15.36;50.72
61292;BME280;47165;42.664;23.368;2023-02-28T14:31:29;95471.22;;;15.08;51.70
61292;BME280;47165;42.664;23.368;2023-02-28T14:34:21;95469.81;;;15.03;52.74
61292;BME280;47165;42.664;23.368;2023-02-28T14:36:52;95478.91;;;14.72;53.00
61292;BME280;47165;42.664;23.368;2023-02-28T14:39:24;95477.53;;;14.66;53.60
61292;BME280;47165;42.664;23.368;2023-02-28T14:41:51;95479.22;;;14.67;54.04
61292;BME280;47165;42.664;23.368;2023-02-28T14:44:18;95465.03;;;14.42;53.18
61292;BME280;47165;42.664;23.368;2023-02-28T14:46:45;95474.69;;;14.42;53.91
61292;BME280;47165;42.664;23.368;2023-02-28T14:49:17;95474.69;;;14.42;54.12
61292;BME280;47165;42.664;23.368;2023-02-28T14:51:43;95475.72;;;14.39;54.45
61292;BME280;47165;42.664;23.368;2023-02-28T14:54:14;95472.38;;;14.23;54.35
61292;BME280;47165;42.664;23.368;2023-02-28T14:56:40;95476.50;;;14.27;54.43
61292;BME280;47165;42.664;23.368;2023-02-28T14:59:23;95476.84;;;14.08;55.34
61292;BME280;47165;42.664;23.368;2023-02-28T15:01:49;95484.63;;;14.09;55.62
61292;BME280;47165;42.664;23.368;2023-02-28T15:04:26;95478.34;;;13.98;55.69
61292;BME280;47165;42.664;23.368;2023-02-28T15:07:10;95469.06;;;14.06;55.39
61292;BME280;47165;42.664;23.368;2023-02-28T15:09:36;95462.25;;;13.89;55.71
61292;BME280;47165;42.664;23.368;2023-02-28T15:12:01;95469.00;;;13.79;56.03
61292;BME280;47165;42.664;23.368;2023-02-28T15:14:27;95468.91;;;13.81;56.66